createdAt,value
2022-10-28T00:01:22.851Z,5.62
2022-10-28T00:03:59.432Z,5.15
2022-10-28T00:06:35.421Z,4.80
2022-10-28T00:09:12.271Z,5.50
2022-10-28T00:11:44.673Z,4.42
2022-10-28T00:14:18.070Z,5.15
2022-10-28T00:16:51.236Z,4.90
2022-10-28T00:19:24.249Z,5.20
2022-10-28T00:21:58.593Z,4.53
2022-10-28T00:24:32.068Z,5.37
2022-10-28T00:27:04.951Z,4.37
2022-10-28T00:29:38.297Z,5.12
2022-10-28T00:32:11.162Z,4.87
2022-10-28T00:34:44.891Z,4.53
2022-10-28T00:37:17.602Z,4.87
2022-10-28T00:39:51.737Z,4.58
2022-10-28T00:42:24.713Z,5.42
2022-10-28T00:45:05.136Z,5.92
2022-10-28T00:47:56.103Z,5.25
2022-10-28T00:50:34.327Z,4.92
2022-10-28T00:53:11.469Z,5.05
2022-10-28T00:55:45.715Z,4.60
2022-10-28T00:58:20.279Z,4.95
2022-10-28T01:00:53.335Z,5.62
2022-10-28T01:03:26.292Z,6.12
2022-10-28T01:06:01.287Z,5.15
2022-10-28T01:08:34.683Z,5.10
2022-10-28T01:11:36.520Z,5.00
2022-10-28T01:14:14.145Z,5.17
2022-10-28T01:17:10.474Z,5.50
2022-10-28T01:20:13.300Z,4.83
2022-10-28T01:23:20.695Z,4.83
2022-10-28T01:26:12.878Z,4.85
2022-10-28T01:29:08.518Z,4.95
2022-10-28T01:31:51.499Z,5.08
2022-10-28T01:34:34.664Z,4.95
2022-10-28T01:37:29.753Z,5.05
2022-10-28T01:40:32.790Z,5.97
2022-10-28T01:43:16.631Z,4.92
2022-10-28T01:45:54.197Z,4.70
2022-10-28T01:48:44.322Z,4.97
2022-10-28T01:51:42.808Z,5.45
2022-10-28T01:54:19.079Z,5.87
2022-10-28T01:56:55.403Z,5.08
2022-10-28T01:59:31.083Z,5.22
2022-10-28T02:02:04.053Z,5.42
2022-10-28T02:04:36.995Z,4.95
2022-10-28T02:07:10.024Z,5.70
2022-10-28T02:10:04.472Z,5.40
2022-10-28T02:12:39.492Z,4.60
2022-10-28T02:15:44.113Z,5.40
2022-10-28T02:18:33.650Z,5.55
2022-10-28T02:21:11.609Z,4.95
2022-10-28T02:23:52.475Z,5.03
2022-10-28T02:26:40.907Z,5.00
2022-10-28T02:29:33.237Z,4.85
2022-10-28T02:32:10.097Z,5.03
2022-10-28T02:34:48.021Z,6.10
2022-10-28T02:37:30.580Z,5.50
2022-10-28T02:40:07.721Z,5.70
2022-10-28T02:42:44.743Z,5.60
2022-10-28T02:45:24.083Z,4.72
2022-10-28T02:48:04.644Z,5.25
2022-10-28T02:50:41.355Z,5.80
2022-10-28T02:53:19.609Z,5.87
2022-10-28T02:55:55.289Z,5.42
2022-10-28T02:58:27.979Z,5.42
2022-10-28T03:01:00.895Z,6.20
2022-10-28T03:03:33.888Z,5.78
2022-10-28T03:06:07.298Z,5.87
2022-10-28T03:11:13.191Z,5.90
2022-10-28T03:13:45.995Z,5.58
2022-10-28T03:16:19.006Z,5.65
2022-10-28T03:18:52.594Z,5.45
2022-10-28T03:21:25.636Z,5.07
2022-10-28T03:23:58.618Z,4.85
2022-10-28T03:26:31.540Z,5.60
2022-10-28T03:29:04.168Z,5.47
2022-10-28T03:31:37.205Z,5.35
2022-10-28T03:34:09.950Z,6.05
2022-10-28T03:36:43.726Z,6.35
2022-10-28T03:39:19.227Z,5.95
2022-10-28T03:41:52.336Z,6.17
2022-10-28T03:44:26.492Z,5.20
2022-10-28T03:46:59.717Z,5.55
2022-10-28T03:49:32.777Z,5.62
2022-10-28T03:52:06.283Z,6.37
2022-10-28T03:54:39.055Z,5.35
2022-10-28T03:57:12.204Z,7.40
2022-10-28T03:59:45.862Z,6.30
2022-10-28T04:02:18.881Z,5.92
2022-10-28T04:04:52.279Z,5.67
2022-10-28T04:07:25.192Z,5.45
2022-10-28T04:09:58.137Z,5.42
2022-10-28T04:12:31.185Z,5.65
2022-10-28T04:15:04.379Z,5.80
2022-10-28T04:17:38.659Z,6.25
2022-10-28T04:20:13.153Z,5.58
2022-10-28T04:22:46.110Z,6.53
2022-10-28T04:25:19.460Z,7.10
2022-10-28T04:27:52.483Z,6.55
2022-10-28T04:30:25.806Z,6.78
2022-10-28T04:32:58.652Z,6.75
2022-10-28T04:35:31.706Z,7.60
2022-10-28T04:38:04.810Z,6.55
2022-10-28T04:40:38.194Z,7.40
2022-10-28T04:43:11.994Z,7.25
2022-10-28T04:45:44.672Z,7.47
2022-10-28T04:48:17.641Z,7.75
2022-10-28T04:50:51.308Z,7.62
2022-10-28T04:53:24.653Z,7.00
2022-10-28T04:56:01.378Z,7.08
2022-10-28T04:58:34.409Z,6.53
2022-10-28T05:01:11.484Z,5.97
2022-10-28T05:03:45.937Z,6.53
2022-10-28T05:06:19.228Z,6.57
2022-10-28T05:08:52.056Z,6.83
2022-10-28T05:11:25.708Z,6.55
2022-10-28T05:13:59.319Z,6.80
2022-10-28T05:16:32.352Z,8.10
2022-10-28T05:19:06.899Z,6.42
2022-10-28T05:21:39.704Z,7.28
2022-10-28T05:24:13.062Z,6.92
2022-10-28T05:26:46.346Z,6.42
2022-10-28T05:29:20.797Z,7.35
2022-10-28T05:31:53.667Z,8.08
2022-10-28T05:34:26.626Z,7.00
2022-10-28T05:36:59.545Z,7.70
2022-10-28T05:39:33.515Z,7.25
2022-10-28T05:42:07.093Z,7.25
2022-10-28T05:44:39.854Z,9.13
2022-10-28T05:47:13.127Z,8.68
2022-10-28T05:49:46.010Z,8.48
2022-10-28T05:52:19.458Z,8.20
2022-10-28T05:54:52.799Z,8.95
2022-10-28T05:57:25.563Z,8.78
2022-10-28T05:59:58.549Z,8.68
2022-10-28T06:02:31.665Z,8.40
2022-10-28T06:05:06.436Z,10.13
2022-10-28T06:07:40.853Z,10.15
2022-10-28T06:10:14.106Z,10.20
2022-10-28T06:12:45.803Z,10.38
2022-10-28T06:15:19.194Z,10.37
2022-10-28T06:17:54.394Z,10.23
2022-10-28T06:20:27.454Z,10.43
2022-10-28T06:23:00.462Z,10.50
2022-10-28T06:25:33.969Z,13.15
2022-10-28T06:28:10.375Z,11.70
2022-10-28T06:30:43.921Z,11.80
2022-10-28T06:33:16.911Z,11.55
2022-10-28T06:35:50.427Z,11.08
2022-10-28T06:38:24.236Z,11.63
2022-10-28T06:41:00.280Z,11.70
2022-10-28T06:43:33.648Z,10.75
2022-10-28T06:46:07.197Z,9.88
2022-10-28T06:48:41.805Z,10.55
2022-10-28T06:51:16.848Z,10.13
2022-10-28T06:53:54.246Z,8.90
2022-10-28T06:56:28.286Z,8.75
2022-10-28T06:59:01.134Z,8.25
2022-10-28T07:01:34.469Z,8.23
2022-10-28T07:04:09.342Z,8.10
2022-10-28T07:06:44.669Z,9.55
2022-10-28T07:09:17.935Z,9.60
2022-10-28T07:11:54.996Z,8.45
2022-10-28T07:14:26.581Z,8.28
2022-10-28T07:17:00.272Z,9.48
2022-10-28T07:19:33.600Z,8.80
2022-10-28T07:22:07.028Z,9.47
2022-10-28T07:24:40.614Z,9.08
2022-10-28T07:27:14.149Z,9.43
2022-10-28T07:29:47.139Z,9.15
2022-10-28T07:32:20.258Z,8.05
2022-10-28T07:34:53.208Z,8.83
2022-10-28T07:37:27.558Z,9.53
2022-10-28T07:40:00.530Z,9.23
2022-10-28T07:42:36.029Z,9.15
2022-10-28T07:45:09.811Z,8.55
2022-10-28T07:47:42.974Z,8.75
2022-10-28T07:50:17.136Z,8.78
2022-10-28T07:52:50.342Z,8.30
2022-10-28T07:55:23.208Z,8.28
2022-10-28T07:57:56.297Z,7.80
2022-10-28T08:00:29.675Z,8.00
2022-10-28T08:03:04.670Z,7.50
2022-10-28T08:05:38.562Z,7.72
2022-10-28T08:08:11.571Z,7.95
2022-10-28T08:10:45.371Z,6.83
2022-10-28T08:13:18.287Z,7.12
2022-10-28T08:15:55.940Z,8.08
2022-10-28T08:18:29.267Z,7.75
2022-10-28T08:21:04.892Z,8.83
2022-10-28T08:23:38.671Z,8.65
2022-10-28T08:26:11.467Z,7.10
2022-10-28T08:28:45.206Z,6.60
2022-10-28T08:31:18.796Z,5.42
2022-10-28T08:33:52.893Z,5.78
2022-10-28T08:36:39.608Z,5.17
2022-10-28T08:39:12.366Z,5.60
2022-10-28T08:41:53.338Z,5.10
2022-10-28T08:44:53.726Z,5.28
2022-10-28T08:47:46.801Z,5.58
2022-10-28T08:50:23.498Z,5.60
2022-10-28T08:53:06.829Z,5.22
2022-10-28T08:55:44.659Z,5.25
2022-10-28T08:58:33.429Z,4.25
2022-10-28T09:01:10.525Z,4.10
2022-10-28T09:03:46.563Z,4.05
2022-10-28T09:06:20.360Z,3.92
2022-10-28T09:08:53.312Z,3.80
2022-10-28T09:11:50.204Z,4.30
2022-10-28T09:14:47.430Z,4.25
2022-10-28T09:17:37.830Z,3.92
2022-10-28T09:20:21.326Z,4.00
2022-10-28T09:22:59.147Z,3.87
2022-10-28T09:25:41.404Z,3.40
2022-10-28T09:28:47.087Z,3.67
2022-10-28T09:31:44.541Z,4.47
2022-10-28T09:34:50.078Z,3.40
2022-10-28T09:37:27.581Z,3.30
2022-10-28T09:40:20.088Z,3.83
2022-10-28T09:43:35.470Z,3.83
2022-10-28T09:46:18.003Z,2.90
2022-10-28T09:48:56.004Z,2.98
2022-10-28T09:51:36.193Z,4.72
2022-10-28T09:54:10.998Z,3.00
2022-10-28T09:56:44.176Z,2.72
2022-10-28T09:59:18.127Z,2.52
2022-10-28T10:01:51.160Z,2.30
2022-10-28T10:04:28.446Z,3.02
2022-10-28T10:07:09.426Z,2.58
2022-10-28T10:09:44.676Z,2.80
2022-10-28T10:12:18.007Z,2.30
2022-10-28T10:14:53.376Z,3.22
2022-10-28T10:17:41.928Z,3.00
2022-10-28T10:20:18.981Z,2.30
2022-10-28T10:22:52.756Z,2.72
2022-10-28T10:25:31.156Z,2.72
2022-10-28T10:28:08.653Z,2.70
2022-10-28T10:31:00.385Z,2.83
2022-10-28T10:33:41.174Z,2.50
2022-10-28T10:36:17.687Z,2.80
2022-10-28T10:38:57.080Z,2.22
2022-10-28T10:41:44.507Z,2.30
2022-10-28T10:44:29.458Z,2.62
2022-10-28T10:47:07.921Z,2.30
2022-10-28T10:49:41.681Z,2.20
2022-10-28T10:52:26.397Z,2.25
2022-10-28T10:55:07.055Z,2.27
2022-10-28T10:57:41.587Z,2.55
2022-10-28T11:00:20.613Z,4.03
2022-10-28T11:02:56.052Z,2.17
2022-10-28T11:05:35.853Z,2.15
2022-10-28T11:08:07.297Z,2.02
2022-10-28T11:10:40.284Z,1.90
2022-10-28T11:13:26.636Z,2.00
2022-10-28T11:16:07.216Z,1.75
2022-10-28T11:18:48.974Z,1.60
2022-10-28T11:22:04.489Z,1.70
2022-10-28T11:24:59.515Z,1.65
2022-10-28T11:28:01.584Z,1.90
2022-10-28T11:31:29.504Z,1.70
2022-10-28T11:34:34.177Z,2.00
2022-10-28T11:40:34.688Z,1.95
2022-10-28T11:43:31.541Z,2.00
2022-10-28T11:46:27.162Z,1.57
2022-10-28T11:49:22.928Z,1.90
2022-10-28T11:52:28.386Z,1.85
2022-10-28T11:55:39.097Z,1.60
2022-10-28T11:58:36.147Z,2.70
2022-10-28T12:01:45.390Z,2.17
2022-10-28T12:04:59.280Z,1.87
2022-10-28T12:07:56.562Z,1.45
2022-10-28T12:10:49.512Z,1.85
2022-10-28T12:13:36.228Z,2.17
2022-10-28T12:16:31.870Z,1.62
2022-10-28T12:19:20.470Z,2.00
2022-10-28T12:22:09.972Z,1.77
2022-10-28T12:24:45.378Z,1.85
2022-10-28T12:27:23.314Z,2.10
2022-10-28T12:30:06.581Z,1.75
2022-10-28T12:32:40.302Z,2.15
2022-10-28T12:35:38.101Z,2.30
2022-10-28T12:38:21.381Z,1.92
2022-10-28T12:40:58.882Z,2.17
2022-10-28T12:43:45.881Z,2.02
2022-10-28T12:46:41.290Z,1.92
2022-10-28T12:49:19.363Z,2.12
2022-10-28T12:51:52.343Z,2.00
2022-10-28T12:54:41.543Z,2.40
2022-10-28T12:57:17.457Z,2.72
2022-10-28T13:00:10.645Z,2.35
2022-10-28T13:03:07.969Z,2.30
2022-10-28T13:06:10.104Z,2.27
2022-10-28T13:09:15.106Z,1.80
2022-10-28T13:12:15.502Z,2.33
2022-10-28T13:15:01.152Z,2.22
2022-10-28T13:18:14.113Z,1.90
2022-10-28T13:21:35.495Z,2.10
2022-10-28T13:24:19.906Z,2.10
2022-10-28T13:26:55.081Z,1.90
2022-10-28T13:29:34.635Z,1.87
2022-10-28T13:32:08.267Z,2.17
2022-10-28T13:34:43.202Z,2.30
2022-10-28T13:37:22.202Z,2.92
2022-10-28T13:39:55.040Z,3.00
2022-10-28T13:42:34.783Z,2.83
2022-10-28T13:45:11.697Z,2.42
2022-10-28T13:47:44.868Z,2.70
2022-10-28T13:50:37.682Z,2.22
2022-10-28T13:53:32.195Z,3.08
2022-10-28T13:56:22.086Z,2.55
2022-10-28T13:59:02.104Z,2.47
2022-10-28T14:02:07.513Z,3.20
2022-10-28T14:04:39.878Z,3.05
2022-10-28T14:07:21.289Z,2.60
2022-10-28T14:09:58.632Z,2.25
2022-10-28T14:12:33.749Z,2.70
2022-10-28T14:15:31.256Z,2.33
2022-10-28T14:18:42.306Z,2.50
2022-10-28T14:21:01.318Z,2.72
2022-10-28T14:23:44.949Z,2.25
2022-10-28T14:26:18.138Z,2.10
2022-10-28T14:28:53.807Z,2.52
2022-10-28T14:31:41.328Z,3.62
2022-10-28T14:34:19.250Z,3.00
2022-10-28T14:37:04.870Z,2.40
2022-10-28T14:39:44.463Z,2.83
2022-10-28T14:42:45.114Z,2.83
2022-10-28T14:45:37.907Z,2.90
2022-10-28T14:48:47.717Z,2.65
2022-10-28T14:51:43.374Z,2.50
2022-10-28T14:54:51.234Z,2.60
2022-10-28T14:57:33.904Z,2.95
2022-10-28T15:00:09.487Z,2.98
2022-10-28T15:02:43.985Z,2.90
2022-10-28T15:05:25.096Z,2.50
2022-10-28T15:08:00.576Z,3.25
2022-10-28T15:10:35.345Z,3.15
2022-10-28T15:13:08.197Z,3.50
2022-10-28T15:15:43.190Z,8.97
2022-10-28T15:21:14.832Z,4.17
2022-10-28T15:24:03.107Z,3.55
2022-10-28T15:26:37.461Z,3.62
2022-10-28T15:29:11.915Z,3.55
2022-10-28T15:32:16.361Z,3.47
2022-10-28T15:34:50.496Z,3.52
2022-10-28T15:37:29.782Z,3.75
2022-10-28T15:40:15.826Z,4.20
2022-10-28T15:42:59.238Z,4.17
2022-10-28T15:45:42.182Z,4.05
2022-10-28T15:48:16.243Z,4.53
2022-10-28T15:51:16.900Z,4.53
2022-10-28T15:53:55.998Z,4.50
2022-10-28T15:56:30.696Z,4.70
2022-10-28T15:59:22.487Z,4.65
2022-10-28T16:01:57.305Z,5.12
2022-10-28T16:04:45.139Z,5.62
2022-10-28T16:07:17.895Z,6.20
2022-10-28T16:09:52.237Z,5.50
2022-10-28T16:12:26.857Z,7.15
2022-10-28T16:15:02.333Z,7.22
2022-10-28T16:17:37.707Z,7.03
2022-10-28T16:20:19.842Z,7.30
2022-10-28T16:22:54.076Z,8.15
2022-10-28T16:25:27.789Z,12.80
2022-10-28T16:28:00.830Z,17.77
2022-10-28T16:30:33.945Z,34.15
2022-10-28T16:33:08.757Z,19.17
2022-10-28T16:35:41.719Z,31.50
2022-10-28T16:38:15.687Z,11.33
2022-10-28T16:40:51.765Z,9.45
2022-10-28T16:43:27.182Z,8.03
2022-10-28T16:46:02.516Z,8.10
2022-10-28T16:48:35.725Z,7.45
2022-10-28T16:51:15.553Z,9.63
2022-10-28T16:53:50.306Z,11.20
2022-10-28T16:56:23.297Z,12.68
2022-10-28T16:58:57.471Z,12.58
2022-10-28T17:01:30.533Z,14.23
2022-10-28T17:04:04.279Z,15.18
2022-10-28T17:06:37.506Z,17.10
2022-10-28T17:09:10.557Z,14.03
2022-10-28T17:11:44.210Z,14.03
2022-10-28T17:14:18.081Z,12.15
2022-10-28T17:19:26.623Z,11.65
2022-10-28T17:24:31.312Z,13.48
2022-10-28T17:27:04.457Z,13.80
2022-10-28T17:29:39.024Z,11.48
2022-10-28T17:32:13.404Z,17.82
2022-10-28T17:34:48.290Z,24.10
2022-10-28T17:37:21.272Z,24.35
2022-10-28T17:42:28.724Z,19.32
2022-10-28T17:45:01.783Z,13.78
2022-10-28T17:47:36.402Z,13.30
2022-10-28T17:50:10.285Z,14.05
2022-10-28T17:52:43.130Z,13.08
2022-10-28T17:55:17.207Z,11.18
2022-10-28T17:57:50.500Z,10.70
2022-10-28T18:00:24.228Z,8.73
2022-10-28T18:02:59.957Z,7.45
2022-10-28T18:05:32.970Z,11.70
2022-10-28T18:08:06.748Z,18.25
2022-10-28T18:10:39.721Z,15.20
2022-10-28T18:13:12.647Z,12.55
2022-10-28T18:15:45.588Z,9.60
2022-10-28T18:18:20.159Z,8.83
2022-10-28T18:20:56.840Z,7.40
2022-10-28T18:23:31.413Z,7.08
2022-10-28T18:26:08.390Z,7.15
2022-10-28T18:28:42.538Z,6.70
2022-10-28T18:31:19.721Z,7.03
2022-10-28T18:33:53.401Z,7.90
2022-10-28T18:36:27.265Z,8.43
2022-10-28T18:39:00.268Z,6.95
2022-10-28T18:41:36.235Z,7.78
2022-10-28T18:44:11.456Z,6.75
2022-10-28T18:46:46.202Z,6.97
2022-10-28T18:51:51.309Z,8.03
2022-10-28T18:54:24.342Z,8.08
2022-10-28T18:56:57.856Z,7.65
2022-10-28T18:59:30.828Z,7.28
2022-10-28T19:02:04.170Z,7.53
2022-10-28T19:04:37.138Z,6.87
2022-10-28T19:07:10.341Z,5.62
2022-10-28T19:09:43.332Z,5.33
2022-10-28T19:12:17.521Z,6.03
2022-10-28T19:14:51.819Z,4.53
2022-10-28T19:17:25.925Z,5.30
2022-10-28T19:19:59.099Z,6.55
2022-10-28T19:22:34.018Z,6.45
2022-10-28T19:25:08.357Z,5.58
2022-10-28T19:27:41.766Z,5.30
2022-10-28T19:30:14.995Z,4.37
2022-10-28T19:32:48.205Z,3.80
2022-10-28T19:35:21.361Z,3.80
2022-10-28T19:37:55.738Z,3.90
2022-10-28T19:40:28.581Z,3.53
2022-10-28T19:43:01.585Z,3.50
2022-10-28T19:45:34.814Z,3.87
2022-10-28T19:48:08.367Z,3.92
2022-10-28T19:50:41.273Z,3.57
2022-10-28T19:53:14.659Z,3.08
2022-10-28T19:55:47.719Z,2.80
2022-10-28T19:58:21.641Z,3.08
2022-10-28T20:01:09.352Z,3.42
2022-10-28T20:03:48.789Z,3.02
2022-10-28T20:06:19.374Z,3.17
2022-10-28T20:08:52.673Z,3.10
2022-10-28T20:11:31.899Z,2.65
2022-10-28T20:14:12.848Z,3.10
2022-10-28T20:16:46.368Z,3.20
2022-10-28T20:19:19.572Z,3.25
2022-10-28T20:21:52.575Z,3.92
2022-10-28T20:24:26.432Z,3.97
2022-10-28T20:26:59.138Z,3.92
2022-10-28T20:29:32.038Z,3.70
2022-10-28T20:32:05.540Z,4.10
2022-10-28T20:34:38.782Z,4.30
2022-10-28T20:37:11.762Z,3.98
2022-10-28T20:39:44.816Z,4.10
2022-10-28T20:42:18.255Z,4.30
2022-10-28T20:44:51.009Z,4.00
2022-10-28T20:47:24.525Z,3.37
2022-10-28T20:49:57.989Z,3.72
2022-10-28T20:52:30.855Z,4.25
2022-10-28T20:55:03.691Z,4.22
2022-10-28T20:57:36.896Z,4.47
2022-10-28T21:00:11.793Z,4.03
2022-10-28T21:02:45.438Z,3.90
2022-10-28T21:05:19.075Z,4.60
2022-10-28T21:07:52.236Z,4.10
2022-10-28T21:10:25.414Z,4.33
2022-10-28T21:12:58.738Z,3.77
2022-10-28T21:15:36.639Z,3.87
2022-10-28T21:18:10.344Z,3.80
2022-10-28T21:20:43.375Z,3.75
2022-10-28T21:23:17.788Z,3.80
2022-10-28T21:26:03.384Z,3.87
2022-10-28T21:28:37.649Z,3.83
2022-10-28T21:31:19.297Z,3.62
2022-10-28T21:33:53.952Z,3.75
2022-10-28T21:36:26.983Z,3.92
2022-10-28T21:38:59.768Z,3.80
2022-10-28T21:44:07.117Z,3.40
2022-10-28T21:49:12.442Z,3.70
2022-10-28T21:51:45.179Z,3.50
2022-10-28T21:54:18.862Z,3.92
2022-10-28T21:56:52.494Z,3.75
2022-10-28T21:59:25.818Z,4.17
2022-10-28T22:01:59.176Z,3.77
2022-10-28T22:04:31.943Z,3.90
2022-10-28T22:07:05.213Z,4.75
2022-10-28T22:09:38.594Z,4.63
2022-10-28T22:12:12.552Z,5.20
2022-10-28T22:14:45.482Z,5.10
2022-10-28T22:17:19.146Z,4.15
2022-10-28T22:19:52.577Z,4.55
2022-10-28T22:22:26.307Z,4.28
2022-10-28T22:24:59.162Z,5.30
2022-10-28T22:27:32.172Z,4.90
2022-10-28T22:30:05.629Z,4.12
2022-10-28T22:32:39.094Z,4.00
2022-10-28T22:35:12.157Z,4.08
2022-10-28T22:37:44.731Z,4.20
2022-10-28T22:40:17.804Z,4.25
2022-10-28T22:42:50.871Z,4.55
2022-10-28T22:45:23.822Z,4.40
2022-10-28T22:47:56.920Z,4.62
2022-10-28T22:50:30.114Z,4.50
2022-10-28T22:53:04.075Z,3.83
2022-10-28T22:55:37.045Z,3.90
2022-10-28T22:58:09.997Z,4.35
2022-10-28T23:00:43.636Z,4.33
2022-10-28T23:03:17.116Z,4.30
2022-10-28T23:05:49.876Z,4.07
2022-10-28T23:08:22.911Z,4.60
2022-10-28T23:10:55.648Z,4.75
2022-10-28T23:13:29.219Z,4.67
2022-10-28T23:16:08.497Z,4.80
2022-10-28T23:18:42.313Z,5.20
2022-10-28T23:21:22.147Z,4.75
2022-10-28T23:24:01.080Z,4.65
2022-10-28T23:26:34.246Z,5.40
2022-10-28T23:29:07.404Z,5.67
2022-10-28T23:31:40.236Z,4.85
2022-10-28T23:34:13.335Z,5.28
2022-10-28T23:36:47.290Z,5.17
2022-10-28T23:39:20.408Z,5.35
2022-10-28T23:41:53.832Z,4.77
2022-10-28T23:44:26.951Z,4.85
2022-10-28T23:46:59.671Z,5.20
2022-10-28T23:49:32.591Z,5.33
2022-10-28T23:54:43.336Z,4.95
2022-10-28T23:57:16.293Z,5.47
2022-10-28T23:59:49.724Z,5.13
